createdAt,value
2019-02-17T00:00:44.993Z,40.67
2019-02-17T00:03:11.065Z,33.77
2019-02-17T00:05:37.079Z,34.40
2019-02-17T00:08:03.119Z,30.70
2019-02-17T00:10:29.139Z,42.37
2019-02-17T00:12:55.248Z,35.77
2019-02-17T00:15:23.291Z,35.03
2019-02-17T00:17:49.330Z,31.13
2019-02-17T00:20:15.646Z,32.47
2019-02-17T00:22:41.665Z,36.27
2019-02-17T00:25:07.675Z,33.93
2019-02-17T00:27:33.706Z,35.40
2019-02-17T00:29:59.728Z,34.37
2019-02-17T00:32:25.767Z,32.17
2019-02-17T00:34:51.787Z,36.63
2019-02-17T00:37:17.792Z,39.73
2019-02-17T00:39:43.898Z,40.90
2019-02-17T00:42:10.251Z,42.57
2019-02-17T00:44:36.307Z,36.73
2019-02-17T00:47:02.316Z,28.90
2019-02-17T00:49:28.350Z,38.40
2019-02-17T00:51:54.439Z,36.73
2019-02-17T00:54:20.475Z,40.40
2019-02-17T00:56:46.487Z,35.27
2019-02-17T00:59:12.515Z,32.07
2019-02-17T01:01:38.536Z,31.37
2019-02-17T01:04:04.567Z,33.17
2019-02-17T01:06:30.687Z,34.60
2019-02-17T01:08:56.828Z,34.13
2019-02-17T01:11:22.839Z,30.43
2019-02-17T01:13:48.880Z,39.90
2019-02-17T01:16:14.895Z,31.47
2019-02-17T01:18:41.235Z,38.23
2019-02-17T01:21:07.350Z,44.13
2019-02-17T01:23:33.385Z,35.93
2019-02-17T01:25:59.395Z,45.27
2019-02-17T01:28:25.423Z,41.07
2019-02-17T01:30:51.440Z,39.67
2019-02-17T01:33:17.452Z,41.90
2019-02-17T01:35:43.504Z,37.03
2019-02-17T01:38:09.540Z,39.10
2019-02-17T01:40:35.566Z,43.17
2019-02-17T01:43:01.592Z,41.73
2019-02-17T01:45:27.722Z,43.17
2019-02-17T01:47:53.735Z,38.37
2019-02-17T01:50:19.772Z,38.27
2019-02-17T01:52:45.789Z,35.53
2019-02-17T01:55:11.835Z,35.27
2019-02-17T01:57:37.843Z,43.33
2019-02-17T02:00:09.797Z,34.70
2019-02-17T02:02:35.807Z,37.83
2019-02-17T02:05:01.854Z,40.33
2019-02-17T02:07:27.923Z,36.23
2019-02-17T02:09:53.967Z,40.43
2019-02-17T02:12:19.983Z,42.53
2019-02-17T02:14:46.055Z,40.27
2019-02-17T02:17:12.178Z,43.07
2019-02-17T02:19:38.393Z,45.83
2019-02-17T02:22:04.447Z,43.17
2019-02-17T02:24:30.489Z,38.37
2019-02-17T02:26:56.494Z,39.33
2019-02-17T02:29:22.521Z,45.03
2019-02-17T02:31:48.535Z,37.40
2019-02-17T02:34:14.619Z,43.07
2019-02-17T02:36:40.644Z,40.73
2019-02-17T02:39:06.656Z,44.80
2019-02-17T02:41:35.039Z,40.13
2019-02-17T02:44:00.607Z,41.87
2019-02-17T02:46:26.643Z,42.90
2019-02-17T02:48:52.657Z,42.07
2019-02-17T02:51:18.679Z,43.57
2019-02-17T02:53:44.704Z,38.63
2019-02-17T02:56:10.725Z,43.47
2019-02-17T02:58:36.740Z,35.17
2019-02-17T03:01:04.102Z,47.03
2019-02-17T03:03:30.120Z,42.30
2019-02-17T03:06:01.233Z,42.60
2019-02-17T03:08:27.248Z,38.23
2019-02-17T03:10:53.295Z,41.57
2019-02-17T03:13:19.307Z,41.53
2019-02-17T03:15:45.355Z,40.53
2019-02-17T03:18:11.375Z,38.40
2019-02-17T03:20:37.503Z,40.17
2019-02-17T03:23:03.519Z,42.53
2019-02-17T03:25:29.552Z,36.77
2019-02-17T03:27:55.568Z,41.60
2019-02-17T03:30:21.788Z,44.55
2019-02-17T03:32:47.850Z,41.47
2019-02-17T03:35:13.881Z,43.80
2019-02-17T03:37:39.892Z,48.87
2019-02-17T03:40:07.428Z,41.33
2019-02-17T03:42:33.443Z,48.53
2019-02-17T03:44:59.487Z,40.47
2019-02-17T03:47:25.499Z,49.77
2019-02-17T03:49:51.534Z,46.37
2019-02-17T03:52:17.547Z,46.23
2019-02-17T03:54:43.564Z,48.23
2019-02-17T03:57:09.595Z,46.37
2019-02-17T03:59:35.608Z,44.60
2019-02-17T04:02:01.639Z,43.27
2019-02-17T04:04:47.532Z,44.77
2019-02-17T04:07:13.647Z,41.90
2019-02-17T04:09:39.683Z,39.53
2019-02-17T04:12:05.711Z,37.70
2019-02-17T04:14:31.733Z,48.53
2019-02-17T04:16:57.740Z,49.33
2019-02-17T04:19:23.776Z,41.63
2019-02-17T04:21:49.794Z,44.03
2019-02-17T04:24:15.832Z,48.70
2019-02-17T04:26:41.843Z,50.03
2019-02-17T04:29:10.243Z,35.50
2019-02-17T04:31:35.855Z,35.27
2019-02-17T04:34:01.892Z,37.23
2019-02-17T04:36:27.905Z,42.17
2019-02-17T04:38:53.955Z,41.33
2019-02-17T04:41:19.967Z,42.00
2019-02-17T04:43:46.015Z,43.37
2019-02-17T04:46:12.020Z,43.93
2019-02-17T04:48:38.056Z,39.47
2019-02-17T04:51:04.077Z,37.67
2019-02-17T04:53:30.118Z,48.05
2019-02-17T04:55:56.134Z,42.57
2019-02-17T04:58:22.367Z,39.27
2019-02-17T05:00:50.045Z,40.40
2019-02-17T05:03:16.200Z,40.47
2019-02-17T05:05:42.231Z,43.50
2019-02-17T05:08:08.251Z,46.43
2019-02-17T05:10:34.301Z,50.17
2019-02-17T05:13:00.312Z,50.47
2019-02-17T05:15:26.440Z,43.57
2019-02-17T05:17:52.447Z,40.53
2019-02-17T05:20:18.479Z,46.63
2019-02-17T05:22:44.495Z,47.03
2019-02-17T05:25:10.528Z,48.07
2019-02-17T05:27:36.546Z,43.87
2019-02-17T05:30:05.680Z,48.57
2019-02-17T05:32:31.692Z,48.13
2019-02-17T05:34:59.061Z,47.93
2019-02-17T05:37:25.341Z,47.80
2019-02-17T05:39:51.616Z,49.33
2019-02-17T05:42:17.632Z,47.67
2019-02-17T05:44:43.660Z,47.50
2019-02-17T05:47:09.671Z,46.73
2019-02-17T05:49:35.704Z,45.00
2019-02-17T05:52:01.763Z,47.20
2019-02-17T05:54:27.809Z,50.37
2019-02-17T05:56:53.822Z,41.43
2019-02-17T05:59:19.860Z,44.27
2019-02-17T06:01:45.879Z,43.37
2019-02-17T06:04:11.915Z,44.80
2019-02-17T06:06:37.931Z,50.73
2019-02-17T06:09:04.235Z,43.40
2019-02-17T06:11:30.271Z,44.27
2019-02-17T06:13:56.289Z,46.13
2019-02-17T06:16:22.351Z,43.70
2019-02-17T06:18:48.366Z,42.47
2019-02-17T06:21:14.400Z,43.07
2019-02-17T06:23:40.412Z,49.07
2019-02-17T06:26:06.486Z,47.57
2019-02-17T06:28:32.527Z,46.13
2019-02-17T06:30:58.563Z,48.03
2019-02-17T06:33:24.639Z,46.17
2019-02-17T06:35:50.670Z,42.27
2019-02-17T06:38:16.675Z,41.33
2019-02-17T06:40:42.717Z,45.70
2019-02-17T06:43:08.735Z,42.10
2019-02-17T06:45:34.832Z,42.87
2019-02-17T06:48:02.206Z,43.80
2019-02-17T06:50:28.313Z,46.60
2019-02-17T06:52:54.362Z,43.43
2019-02-17T06:55:30.956Z,46.17
2019-02-17T06:57:56.974Z,52.07
2019-02-17T07:00:24.912Z,42.80
2019-02-17T07:02:50.932Z,52.70
2019-02-17T07:05:30.908Z,43.87
2019-02-17T07:07:56.921Z,41.97
2019-02-17T07:10:23.038Z,40.90
2019-02-17T07:12:49.099Z,36.83
2019-02-17T07:15:15.533Z,39.63
2019-02-17T07:17:41.590Z,50.33
2019-02-17T07:20:09.677Z,44.63
2019-02-17T07:22:35.567Z,39.47
2019-02-17T07:25:01.636Z,38.17
2019-02-17T07:27:27.851Z,44.97
2019-02-17T07:29:54.455Z,38.43
2019-02-17T07:32:20.515Z,38.80
2019-02-17T07:34:46.615Z,41.67
2019-02-17T07:37:12.652Z,41.97
2019-02-17T07:39:38.666Z,42.27
2019-02-17T07:42:04.695Z,44.77
2019-02-17T07:44:30.804Z,44.53
2019-02-17T07:46:56.830Z,38.83
2019-02-17T07:49:22.862Z,38.80
2019-02-17T07:51:48.894Z,41.60
2019-02-17T07:54:14.898Z,37.27
2019-02-17T07:56:40.931Z,39.23
2019-02-17T07:59:07.092Z,41.97
2019-02-17T08:01:33.118Z,35.33
2019-02-17T08:03:59.123Z,39.40
2019-02-17T08:06:25.255Z,35.37
2019-02-17T08:08:51.354Z,42.40
2019-02-17T08:11:17.475Z,40.07
2019-02-17T08:13:43.591Z,37.60
2019-02-17T08:16:09.614Z,35.33
2019-02-17T08:18:35.635Z,42.47
2019-02-17T08:21:01.703Z,36.60
2019-02-17T08:23:27.716Z,35.73
2019-02-17T08:25:53.792Z,35.93
2019-02-17T08:28:19.807Z,33.83
2019-02-17T08:30:45.857Z,35.53
2019-02-17T08:33:12.011Z,36.93
2019-02-17T08:35:38.047Z,33.50
2019-02-17T08:38:04.083Z,36.13
2019-02-17T08:40:30.104Z,33.10
2019-02-17T08:42:56.138Z,33.53
2019-02-17T08:45:22.156Z,32.53
2019-02-17T08:47:48.190Z,30.57
2019-02-17T08:50:14.203Z,31.30
2019-02-17T08:52:40.231Z,30.90
2019-02-17T08:55:08.262Z,32.40
2019-02-17T08:57:34.432Z,36.37
2019-02-17T09:00:00.452Z,31.70
2019-02-17T09:02:26.587Z,31.90
2019-02-17T09:04:52.762Z,29.30
2019-02-17T09:07:18.951Z,29.90
2019-02-17T09:09:45.031Z,26.37
2019-02-17T09:12:11.063Z,26.97
2019-02-17T09:14:37.084Z,26.23
2019-02-17T09:17:03.143Z,33.07
2019-02-17T09:19:29.215Z,27.30
2019-02-17T09:21:55.256Z,20.93
2019-02-17T09:24:21.275Z,19.87
2019-02-17T09:26:47.314Z,21.50
2019-02-17T09:29:13.344Z,21.30
2019-02-17T09:31:39.418Z,14.97
2019-02-17T09:34:05.467Z,11.57
2019-02-17T09:36:31.499Z,10.53
2019-02-17T09:38:57.513Z,15.40
2019-02-17T09:41:23.527Z,13.83
2019-02-17T09:43:49.584Z,9.97
2019-02-17T09:46:15.611Z,11.17
2019-02-17T09:48:41.631Z,18.13
2019-02-17T09:51:08.778Z,10.93
2019-02-17T09:53:34.795Z,15.53
2019-02-17T09:56:00.811Z,11.90
2019-02-17T09:58:26.851Z,13.33
2019-02-17T10:00:52.872Z,10.23
2019-02-17T10:03:18.908Z,11.87
2019-02-17T10:05:44.930Z,12.37
2019-02-17T10:08:10.971Z,11.47
2019-02-17T10:10:37.008Z,10.83
2019-02-17T10:13:03.042Z,15.13
2019-02-17T10:15:29.060Z,8.77
2019-02-17T10:17:55.095Z,11.90
2019-02-17T10:20:21.127Z,10.77
2019-02-17T10:22:47.164Z,16.17
2019-02-17T10:25:13.195Z,7.83
2019-02-17T10:27:39.240Z,9.83
2019-02-17T10:30:09.060Z,16.60
2019-02-17T10:32:38.524Z,10.80
2019-02-17T10:35:04.359Z,15.80
2019-02-17T10:37:30.391Z,15.50
2019-02-17T10:39:56.403Z,11.43
2019-02-17T10:42:22.545Z,14.47
2019-02-17T10:44:48.583Z,12.27
2019-02-17T10:47:14.591Z,8.17
2019-02-17T10:49:41.031Z,9.53
2019-02-17T10:52:07.046Z,8.53
2019-02-17T10:54:33.073Z,8.07
2019-02-17T10:56:59.084Z,8.47
2019-02-17T10:59:25.121Z,8.70
2019-02-17T11:01:51.145Z,9.73
2019-02-17T11:04:17.198Z,8.07
2019-02-17T11:06:43.211Z,7.80
2019-02-17T11:09:17.159Z,7.03
2019-02-17T11:11:43.179Z,7.67
2019-02-17T11:14:09.244Z,17.87
2019-02-17T11:16:35.272Z,8.47
2019-02-17T11:19:01.615Z,5.33
2019-02-17T11:21:27.698Z,10.97
2019-02-17T11:23:53.734Z,8.77
2019-02-17T11:26:19.746Z,8.17
2019-02-17T11:28:47.177Z,11.50
2019-02-17T11:31:13.193Z,11.80
2019-02-17T11:33:39.227Z,9.93
2019-02-17T11:36:05.345Z,11.27
2019-02-17T11:38:31.469Z,10.27
2019-02-17T11:40:57.483Z,8.40
2019-02-17T11:43:23.504Z,8.43
2019-02-17T11:45:49.622Z,5.07
2019-02-17T11:48:15.655Z,9.97
2019-02-17T11:50:41.727Z,7.33
2019-02-17T11:53:07.743Z,7.50
2019-02-17T11:55:34.331Z,10.87
2019-02-17T11:58:00.341Z,7.97
2019-02-17T12:00:26.371Z,5.83
2019-02-17T12:02:52.478Z,7.00
2019-02-17T12:05:18.511Z,6.90
2019-02-17T12:07:44.671Z,13.13
2019-02-17T12:10:10.720Z,6.97
2019-02-17T12:12:36.828Z,10.00
2019-02-17T12:15:04.971Z,8.47
2019-02-17T12:17:30.978Z,6.67
2019-02-17T12:19:58.931Z,7.63
2019-02-17T12:22:26.887Z,7.23
2019-02-17T12:24:54.500Z,12.33
2019-02-17T12:27:22.410Z,6.07
2019-02-17T12:29:50.343Z,11.43
2019-02-17T12:32:17.955Z,9.23
2019-02-17T12:34:44.331Z,7.40
2019-02-17T12:37:10.343Z,6.27
2019-02-17T12:39:36.371Z,11.03
2019-02-17T12:42:02.496Z,6.10
2019-02-17T12:44:28.680Z,5.90
2019-02-17T12:46:54.679Z,4.70
2019-02-17T12:49:20.920Z,6.03
2019-02-17T12:51:47.030Z,5.13
2019-02-17T12:54:13.118Z,6.87
2019-02-17T12:56:39.135Z,5.80
2019-02-17T12:59:05.159Z,8.13
2019-02-17T13:01:31.172Z,9.20
2019-02-17T13:03:57.189Z,6.90
2019-02-17T13:06:23.280Z,8.00
2019-02-17T13:08:49.300Z,5.30
2019-02-17T13:11:15.331Z,6.43
2019-02-17T13:13:41.344Z,8.27
2019-02-17T13:16:07.387Z,5.00
2019-02-17T13:18:33.410Z,9.40
2019-02-17T13:20:59.556Z,15.13
2019-02-17T13:23:25.574Z,5.87
2019-02-17T13:25:51.723Z,4.63
2019-02-17T13:28:17.735Z,3.50
2019-02-17T13:30:43.856Z,7.60
2019-02-17T13:33:09.954Z,7.07
2019-02-17T13:35:36.528Z,8.07
2019-02-17T13:38:02.643Z,2.80
2019-02-17T13:41:07.268Z,8.13
2019-02-17T13:43:33.319Z,4.63
2019-02-17T13:45:59.357Z,3.77
2019-02-17T13:48:25.369Z,2.23
2019-02-17T13:50:51.394Z,4.47
2019-02-17T13:53:17.411Z,3.53
2019-02-17T13:55:43.487Z,5.53
2019-02-17T13:58:09.503Z,3.73
2019-02-17T14:00:35.535Z,4.27
2019-02-17T14:03:01.551Z,5.80
2019-02-17T14:05:27.575Z,2.73
2019-02-17T14:07:53.678Z,5.97
2019-02-17T14:10:19.732Z,3.13
2019-02-17T14:12:45.747Z,3.63
2019-02-17T14:15:16.479Z,5.20
2019-02-17T14:17:42.606Z,2.33
2019-02-17T14:20:09.468Z,3.80
2019-02-17T14:22:35.480Z,3.13
2019-02-17T14:25:01.490Z,3.03
2019-02-17T14:27:27.607Z,7.33
2019-02-17T14:29:53.627Z,4.10
2019-02-17T14:32:19.651Z,3.03
2019-02-17T14:34:45.667Z,4.07
2019-02-17T14:37:31.583Z,3.00
2019-02-17T14:39:57.668Z,3.33
2019-02-17T14:42:23.761Z,4.53
2019-02-17T14:44:49.775Z,4.23
2019-02-17T14:47:15.847Z,3.27
2019-02-17T14:49:41.871Z,2.07
2019-02-17T14:52:08.000Z,15.83
2019-02-17T14:54:34.017Z,3.57
2019-02-17T14:57:00.094Z,4.17
2019-02-17T14:59:27.856Z,2.47
2019-02-17T15:01:54.048Z,2.73
2019-02-17T15:04:20.058Z,2.10
2019-02-17T15:06:46.087Z,4.87
2019-02-17T15:09:12.105Z,1.83
2019-02-17T15:11:38.135Z,2.70
2019-02-17T15:14:04.153Z,4.90
2019-02-17T15:16:30.183Z,4.67
2019-02-17T15:18:56.206Z,2.57
2019-02-17T15:21:22.271Z,3.80
2019-02-17T15:23:48.265Z,3.63
2019-02-17T15:26:14.312Z,4.00
2019-02-17T15:28:40.331Z,4.17
2019-02-17T15:31:06.383Z,5.80
2019-02-17T15:33:32.387Z,4.80
2019-02-17T15:35:58.403Z,1.97
2019-02-17T15:38:24.439Z,4.57
2019-02-17T15:40:50.488Z,4.77
2019-02-17T15:43:16.535Z,4.20
2019-02-17T15:45:42.589Z,5.63
2019-02-17T15:48:08.627Z,4.67
2019-02-17T15:50:34.643Z,6.07
2019-02-17T15:53:20.576Z,6.43
2019-02-17T15:55:46.587Z,5.17
2019-02-17T15:58:12.623Z,2.67
2019-02-17T16:00:38.690Z,2.10
2019-02-17T16:03:04.732Z,1.70
2019-02-17T16:05:30.744Z,6.07
2019-02-17T16:07:56.775Z,3.57
2019-02-17T16:10:22.878Z,4.60
2019-02-17T16:12:48.911Z,3.07
2019-02-17T16:15:16.827Z,7.00
2019-02-17T16:17:42.855Z,6.10
2019-02-17T16:20:11.053Z,4.90
2019-02-17T16:22:37.150Z,4.20
2019-02-17T16:25:04.959Z,5.60
2019-02-17T16:27:30.988Z,5.30
2019-02-17T16:29:57.147Z,4.70
2019-02-17T16:32:23.228Z,7.67
2019-02-17T16:34:49.240Z,4.97
2019-02-17T16:37:15.267Z,4.43
2019-02-17T16:39:41.283Z,6.67
2019-02-17T16:42:07.315Z,9.27
2019-02-17T16:44:33.326Z,4.83
2019-02-17T16:46:59.364Z,7.30
2019-02-17T16:49:25.395Z,6.30
2019-02-17T16:51:51.415Z,6.77
2019-02-17T16:54:17.418Z,4.80
2019-02-17T16:56:43.436Z,5.33
2019-02-17T16:59:09.467Z,6.73
2019-02-17T17:01:35.479Z,6.03
2019-02-17T17:04:01.960Z,9.37
2019-02-17T17:06:27.980Z,4.80
2019-02-17T17:08:54.939Z,6.40
2019-02-17T17:11:20.951Z,5.03
2019-02-17T17:13:46.983Z,16.97
2019-02-17T17:16:13.002Z,11.20
2019-02-17T17:18:39.091Z,12.90
2019-02-17T17:21:05.107Z,34.57
2019-02-17T17:23:31.146Z,38.90
2019-02-17T17:25:57.155Z,20.50
2019-02-17T17:28:23.199Z,18.43
2019-02-17T17:30:49.313Z,28.17
2019-02-17T17:33:15.512Z,35.20
2019-02-17T17:35:41.522Z,16.60
2019-02-17T17:38:07.555Z,14.65
2019-02-17T17:40:33.568Z,29.20
2019-02-17T17:42:59.606Z,17.93
2019-02-17T17:45:25.671Z,15.03
2019-02-17T17:47:51.704Z,7.67
2019-02-17T17:50:18.171Z,8.63
2019-02-17T17:52:45.007Z,10.78
2019-02-17T17:55:12.178Z,50.10
2019-02-17T17:57:38.265Z,13.50
2019-02-17T18:00:10.780Z,38.50
2019-02-17T18:02:38.019Z,74.07
2019-02-17T18:05:09.160Z,61.07
2019-02-17T18:07:33.700Z,39.70
2019-02-17T18:09:59.744Z,47.83
2019-02-17T18:12:25.767Z,13.37
2019-02-17T18:14:51.908Z,12.17
2019-02-17T18:17:17.951Z,17.00
2019-02-17T18:20:18.031Z,18.70
2019-02-17T18:23:16.433Z,17.90
2019-02-17T18:25:41.944Z,28.30
2019-02-17T18:28:07.971Z,31.50
2019-02-17T18:30:34.000Z,20.00
2019-02-17T18:33:00.023Z,18.67
2019-02-17T18:35:26.035Z,18.87
2019-02-17T18:37:52.076Z,20.97
2019-02-17T18:40:18.735Z,13.30
2019-02-17T18:42:44.787Z,15.63
2019-02-17T18:45:11.947Z,10.17
2019-02-17T18:47:37.984Z,17.90
2019-02-17T18:50:27.773Z,19.13
2019-02-17T18:52:53.790Z,22.30
2019-02-17T18:55:20.128Z,39.97
2019-02-17T18:57:50.081Z,37.77
2019-02-17T19:00:24.135Z,35.70
2019-02-17T19:02:50.164Z,30.43
2019-02-17T19:05:16.474Z,43.10
2019-02-17T19:07:42.477Z,41.70
2019-02-17T19:10:10.524Z,47.77
2019-02-17T19:12:36.642Z,63.90
2019-02-17T19:15:04.867Z,49.57
2019-02-17T19:17:30.884Z,61.83
2019-02-17T19:19:57.000Z,51.97
2019-02-17T19:22:23.016Z,52.30
2019-02-17T19:24:49.051Z,35.67
2019-02-17T19:27:15.062Z,30.40
2019-02-17T19:29:41.187Z,19.37
2019-02-17T19:32:07.218Z,22.33
2019-02-17T19:34:34.414Z,23.83
2019-02-17T19:37:00.659Z,11.97
2019-02-17T19:39:26.690Z,16.80
2019-02-17T19:41:52.703Z,15.00
2019-02-17T19:44:18.760Z,19.10
2019-02-17T19:46:44.957Z,62.93
2019-02-17T19:49:11.109Z,155.67
2019-02-17T19:51:37.123Z,25.67
2019-02-17T19:54:03.252Z,19.20
2019-02-17T19:56:29.312Z,15.00
2019-02-17T19:58:55.379Z,21.03
2019-02-17T20:01:21.525Z,28.43
2019-02-17T20:03:58.783Z,29.17
2019-02-17T20:06:24.839Z,24.20
2019-02-17T20:08:50.856Z,35.00
2019-02-17T20:11:17.079Z,37.17
2019-02-17T20:13:43.099Z,49.10
2019-02-17T20:16:09.138Z,44.87
2019-02-17T20:18:35.168Z,84.30
2019-02-17T20:21:01.820Z,46.70
2019-02-17T20:23:27.929Z,32.47
2019-02-17T20:25:54.064Z,43.07
2019-02-17T20:28:20.127Z,37.57
2019-02-17T20:30:46.261Z,24.10
2019-02-17T20:33:12.271Z,23.37
2019-02-17T20:35:38.304Z,17.97
2019-02-17T20:38:04.324Z,16.47
2019-02-17T20:40:30.351Z,14.87
2019-02-17T20:42:56.369Z,19.30
2019-02-17T20:45:22.399Z,15.68
2019-02-17T20:47:48.435Z,7.77
2019-02-17T20:50:15.471Z,7.60
2019-02-17T20:52:41.879Z,5.63
2019-02-17T20:55:11.753Z,12.23
2019-02-17T20:57:38.044Z,12.93
2019-02-17T21:00:07.833Z,15.60
2019-02-17T21:02:33.883Z,8.93
2019-02-17T21:05:02.789Z,15.67
2019-02-17T21:07:28.860Z,11.20
2019-02-17T21:09:55.019Z,12.60
2019-02-17T21:12:21.036Z,13.50
2019-02-17T21:14:47.046Z,12.07
2019-02-17T21:17:13.084Z,11.43
2019-02-17T21:19:39.111Z,10.97
2019-02-17T21:22:05.148Z,12.23
2019-02-17T21:24:31.171Z,19.03
2019-02-17T21:29:29.499Z,15.23
2019-02-17T21:31:55.520Z,11.70
2019-02-17T21:34:21.536Z,11.30
2019-02-17T21:36:47.568Z,14.47
2019-02-17T21:39:13.581Z,11.90
2019-02-17T21:41:39.612Z,16.50
2019-02-17T21:44:05.627Z,10.80
2019-02-17T21:46:32.364Z,13.50
2019-02-17T21:48:58.639Z,14.53
2019-02-17T21:51:24.673Z,16.30
2019-02-17T21:53:51.293Z,16.10
2019-02-17T21:56:17.524Z,15.23
2019-02-17T21:58:44.146Z,17.07
2019-02-17T22:01:10.908Z,16.60
2019-02-17T22:03:37.095Z,15.33
2019-02-17T22:06:03.557Z,18.55
2019-02-17T22:08:29.992Z,19.63
2019-02-17T22:10:56.468Z,14.60
2019-02-17T22:13:22.824Z,14.83
2019-02-17T22:15:49.295Z,12.43
2019-02-17T22:18:15.927Z,10.07
2019-02-17T22:20:42.892Z,10.47
2019-02-17T22:23:09.590Z,9.33
2019-02-17T22:25:36.306Z,9.73
2019-02-17T22:28:03.043Z,7.10
2019-02-17T22:30:29.828Z,8.57
2019-02-17T22:32:56.368Z,8.10
2019-02-17T22:35:22.948Z,12.60
2019-02-17T22:37:49.637Z,6.63
2019-02-17T22:40:16.068Z,10.10
2019-02-17T22:42:42.172Z,9.90
2019-02-17T22:45:11.448Z,6.70
2019-02-17T22:47:37.511Z,11.70
2019-02-17T22:50:11.885Z,10.23
2019-02-17T22:52:37.915Z,10.73
2019-02-17T22:55:07.035Z,13.40
2019-02-17T22:57:33.059Z,14.40
2019-02-17T22:59:59.079Z,10.17
2019-02-17T23:02:25.316Z,9.83
2019-02-17T23:04:51.338Z,12.30
2019-02-17T23:07:17.412Z,11.50
2019-02-17T23:09:43.624Z,6.30
2019-02-17T23:12:09.659Z,8.57
2019-02-17T23:14:35.766Z,7.57
2019-02-17T23:17:04.095Z,8.77
2019-02-17T23:19:30.108Z,8.10
2019-02-17T23:21:56.316Z,7.63
2019-02-17T23:24:22.418Z,13.20
2019-02-17T23:26:48.451Z,10.20
2019-02-17T23:29:14.471Z,17.63
2019-02-17T23:31:40.499Z,10.13
2019-02-17T23:34:06.543Z,10.73
2019-02-17T23:36:32.683Z,11.97
2019-02-17T23:38:58.695Z,14.13
2019-02-17T23:41:24.749Z,10.50
2019-02-17T23:43:50.837Z,14.00
2019-02-17T23:46:16.879Z,15.47
2019-02-17T23:48:42.945Z,13.30
2019-02-17T23:51:08.946Z,17.37
2019-02-17T23:53:34.974Z,9.90
2019-02-17T23:56:00.987Z,12.63
2019-02-17T23:58:27.044Z,13.17
